sensor_id;sensor_type;location;lat;lon;timestamp;P1;durP1;ratioP1;P2;durP2;ratioP2
23187;SDS011;11762;59.878;17.686;2022-10-31T00:00:07;15.20;;;3.97;;
23187;SDS011;11762;59.878;17.686;2022-10-31T00:02:57;14.33;;;3.53;;
23187;SDS011;11762;59.878;17.686;2022-10-31T00:05:45;11.23;;;3.50;;
23187;SDS011;11762;59.878;17.686;2022-10-31T00:08:33;9.07;;;2.97;;
23187;SDS011;11762;59.878;17.686;2022-10-31T00:11:20;9.37;;;2.90;;
23187;SDS011;11762;59.878;17.686;2022-10-31T00:14:08;14.60;;;3.47;;
23187;SDS011;11762;59.878;17.686;2022-10-31T00:16:57;11.37;;;2.57;;
23187;SDS011;11762;59.878;17.686;2022-10-31T00:19:44;10.70;;;2.60;;
23187;SDS011;11762;59.878;17.686;2022-10-31T00:22:32;7.57;;;2.40;;
23187;SDS011;11762;59.878;17.686;2022-10-31T00:25:19;5.10;;;2.67;;
23187;SDS011;11762;59.878;17.686;2022-10-31T00:28:07;6.13;;;2.43;;
23187;SDS011;11762;59.878;17.686;2022-10-31T00:30:58;9.73;;;2.60;;
23187;SDS011;11762;59.878;17.686;2022-10-31T00:33:47;5.10;;;2.20;;
23187;SDS011;11762;59.878;17.686;2022-10-31T00:36:35;5.90;;;3.00;;
23187;SDS011;11762;59.878;17.686;2022-10-31T00:39:22;8.17;;;2.87;;
23187;SDS011;11762;59.878;17.686;2022-10-31T00:42:09;7.13;;;2.53;;
23187;SDS011;11762;59.878;17.686;2022-10-31T00:44:56;9.23;;;2.50;;
23187;SDS011;11762;59.878;17.686;2022-10-31T00:47:44;8.47;;;2.40;;
23187;SDS011;11762;59.878;17.686;2022-10-31T00:50:32;5.43;;;2.50;;
23187;SDS011;11762;59.878;17.686;2022-10-31T00:53:20;4.53;;;2.30;;
23187;SDS011;11762;59.878;17.686;2022-10-31T00:56:07;5.67;;;2.73;;
23187;SDS011;11762;59.878;17.686;2022-10-31T00:58:54;5.63;;;3.03;;
23187;SDS011;11762;59.878;17.686;2022-10-31T01:01:42;10.43;;;2.80;;
23187;SDS011;11762;59.878;17.686;2022-10-31T01:04:29;9.37;;;2.77;;
23187;SDS011;11762;59.878;17.686;2022-10-31T01:07:18;11.27;;;3.10;;
23187;SDS011;11762;59.878;17.686;2022-10-31T01:10:06;7.33;;;2.60;;
23187;SDS011;11762;59.878;17.686;2022-10-31T01:12:54;11.37;;;2.73;;
23187;SDS011;11762;59.878;17.686;2022-10-31T01:15:41;8.10;;;2.90;;
23187;SDS011;11762;59.878;17.686;2022-10-31T01:18:28;5.17;;;2.23;;
23187;SDS011;11762;59.878;17.686;2022-10-31T01:21:17;9.03;;;2.73;;
23187;SDS011;11762;59.878;17.686;2022-10-31T01:24:07;6.10;;;2.70;;
23187;SDS011;11762;59.878;17.686;2022-10-31T01:26:55;8.07;;;2.63;;
23187;SDS011;11762;59.878;17.686;2022-10-31T01:29:42;5.50;;;2.53;;
23187;SDS011;11762;59.878;17.686;2022-10-31T01:32:30;4.17;;;2.30;;
23187;SDS011;11762;59.878;17.686;2022-10-31T01:35:17;9.50;;;2.97;;
23187;SDS011;11762;59.878;17.686;2022-10-31T01:38:05;8.70;;;2.93;;
23187;SDS011;11762;59.878;17.686;2022-10-31T01:40:53;8.10;;;2.80;;
23187;SDS011;11762;59.878;17.686;2022-10-31T01:43:48;7.70;;;3.43;;
23187;SDS011;11762;59.878;17.686;2022-10-31T01:46:37;10.00;;;2.70;;
23187;SDS011;11762;59.878;17.686;2022-10-31T01:49:28;6.73;;;3.10;;
23187;SDS011;11762;59.878;17.686;2022-10-31T01:52:21;7.63;;;3.10;;
23187;SDS011;11762;59.878;17.686;2022-10-31T01:55:12;5.37;;;2.70;;
23187;SDS011;11762;59.878;17.686;2022-10-31T01:58:06;8.97;;;3.23;;
23187;SDS011;11762;59.878;17.686;2022-10-31T02:00:57;7.87;;;2.83;;
23187;SDS011;11762;59.878;17.686;2022-10-31T02:03:46;13.20;;;3.10;;
23187;SDS011;11762;59.878;17.686;2022-10-31T02:06:35;9.30;;;3.23;;
23187;SDS011;11762;59.878;17.686;2022-10-31T02:09:26;4.80;;;2.43;;
23187;SDS011;11762;59.878;17.686;2022-10-31T02:12:15;7.63;;;3.23;;
23187;SDS011;11762;59.878;17.686;2022-10-31T02:15:06;10.97;;;3.10;;
23187;SDS011;11762;59.878;17.686;2022-10-31T02:17:55;9.57;;;3.03;;
23187;SDS011;11762;59.878;17.686;2022-10-31T02:20:45;10.77;;;2.57;;
23187;SDS011;11762;59.878;17.686;2022-10-31T02:27:11;9.13;;;2.97;;
23187;SDS011;11762;59.878;17.686;2022-10-31T02:30:11;7.47;;;2.87;;
23187;SDS011;11762;59.878;17.686;2022-10-31T02:33:06;7.43;;;3.00;;
23187;SDS011;11762;59.878;17.686;2022-10-31T02:36:05;7.77;;;3.13;;
23187;SDS011;11762;59.878;17.686;2022-10-31T02:39:00;6.53;;;3.33;;
23187;SDS011;11762;59.878;17.686;2022-10-31T02:41:57;7.43;;;2.73;;
23187;SDS011;11762;59.878;17.686;2022-10-31T02:44:53;8.30;;;2.70;;
23187;SDS011;11762;59.878;17.686;2022-10-31T02:47:47;12.83;;;3.10;;
23187;SDS011;11762;59.878;17.686;2022-10-31T02:50:39;6.80;;;2.77;;
23187;SDS011;11762;59.878;17.686;2022-10-31T02:53:31;10.57;;;2.60;;
23187;SDS011;11762;59.878;17.686;2022-10-31T02:56:19;8.83;;;2.57;;
23187;SDS011;11762;59.878;17.686;2022-10-31T02:59:06;12.03;;;2.87;;
23187;SDS011;11762;59.878;17.686;2022-10-31T03:01:56;6.77;;;3.03;;
23187;SDS011;11762;59.878;17.686;2022-10-31T03:05:04;8.40;;;3.07;;
23187;SDS011;11762;59.878;17.686;2022-10-31T03:08:10;6.10;;;2.43;;
23187;SDS011;11762;59.878;17.686;2022-10-31T03:11:06;9.00;;;3.27;;
23187;SDS011;11762;59.878;17.686;2022-10-31T03:13:57;6.50;;;2.80;;
23187;SDS011;11762;59.878;17.686;2022-10-31T03:16:51;5.10;;;2.40;;
23187;SDS011;11762;59.878;17.686;2022-10-31T03:19:41;6.90;;;2.20;;
23187;SDS011;11762;59.878;17.686;2022-10-31T03:22:31;6.77;;;2.57;;
23187;SDS011;11762;59.878;17.686;2022-10-31T03:25:22;8.07;;;2.63;;
23187;SDS011;11762;59.878;17.686;2022-10-31T03:28:10;10.03;;;2.70;;
23187;SDS011;11762;59.878;17.686;2022-10-31T03:30:59;5.57;;;2.70;;
23187;SDS011;11762;59.878;17.686;2022-10-31T03:33:48;11.30;;;3.40;;
23187;SDS011;11762;59.878;17.686;2022-10-31T03:36:38;10.33;;;2.90;;
23187;SDS011;11762;59.878;17.686;2022-10-31T03:39:27;7.30;;;2.57;;
23187;SDS011;11762;59.878;17.686;2022-10-31T03:42:18;9.87;;;2.97;;
23187;SDS011;11762;59.878;17.686;2022-10-31T03:45:10;7.80;;;3.07;;
23187;SDS011;11762;59.878;17.686;2022-10-31T03:47:59;10.67;;;3.40;;
23187;SDS011;11762;59.878;17.686;2022-10-31T03:50:49;5.83;;;2.97;;
23187;SDS011;11762;59.878;17.686;2022-10-31T03:53:45;8.83;;;3.50;;
23187;SDS011;11762;59.878;17.686;2022-10-31T03:56:37;10.57;;;3.33;;
23187;SDS011;11762;59.878;17.686;2022-10-31T03:59:31;8.97;;;2.93;;
23187;SDS011;11762;59.878;17.686;2022-10-31T04:02:22;8.97;;;3.07;;
23187;SDS011;11762;59.878;17.686;2022-10-31T04:05:15;8.93;;;3.30;;
23187;SDS011;11762;59.878;17.686;2022-10-31T04:08:04;5.93;;;2.90;;
23187;SDS011;11762;59.878;17.686;2022-10-31T04:10:54;8.83;;;2.93;;
23187;SDS011;11762;59.878;17.686;2022-10-31T04:13:44;11.03;;;2.90;;
23187;SDS011;11762;59.878;17.686;2022-10-31T04:16:36;7.30;;;3.00;;
23187;SDS011;11762;59.878;17.686;2022-10-31T04:19:24;5.00;;;2.83;;
23187;SDS011;11762;59.878;17.686;2022-10-31T04:22:11;7.80;;;3.50;;
23187;SDS011;11762;59.878;17.686;2022-10-31T04:24:58;8.77;;;3.47;;
23187;SDS011;11762;59.878;17.686;2022-10-31T04:27:46;5.87;;;2.90;;
23187;SDS011;11762;59.878;17.686;2022-10-31T04:30:33;10.83;;;3.63;;
23187;SDS011;11762;59.878;17.686;2022-10-31T04:33:22;15.77;;;3.30;;
23187;SDS011;11762;59.878;17.686;2022-10-31T04:36:09;8.33;;;3.57;;
23187;SDS011;11762;59.878;17.686;2022-10-31T04:38:56;8.67;;;3.87;;
23187;SDS011;11762;59.878;17.686;2022-10-31T04:41:44;12.30;;;3.87;;
23187;SDS011;11762;59.878;17.686;2022-10-31T04:44:31;7.67;;;3.93;;
23187;SDS011;11762;59.878;17.686;2022-10-31T04:47:18;8.00;;;3.77;;
23187;SDS011;11762;59.878;17.686;2022-10-31T04:50:07;8.17;;;3.47;;
23187;SDS011;11762;59.878;17.686;2022-10-31T04:52:55;9.80;;;4.07;;
23187;SDS011;11762;59.878;17.686;2022-10-31T04:55:42;14.70;;;4.60;;
23187;SDS011;11762;59.878;17.686;2022-10-31T04:58:30;7.40;;;3.73;;
23187;SDS011;11762;59.878;17.686;2022-10-31T05:01:17;9.20;;;3.27;;
23187;SDS011;11762;59.878;17.686;2022-10-31T05:04:04;6.43;;;3.50;;
23187;SDS011;11762;59.878;17.686;2022-10-31T05:06:53;8.13;;;3.60;;
23187;SDS011;11762;59.878;17.686;2022-10-31T05:09:40;5.50;;;3.13;;
23187;SDS011;11762;59.878;17.686;2022-10-31T05:12:27;6.50;;;3.63;;
23187;SDS011;11762;59.878;17.686;2022-10-31T05:15:15;9.23;;;3.47;;
23187;SDS011;11762;59.878;17.686;2022-10-31T05:18:04;11.53;;;3.37;;
23187;SDS011;11762;59.878;17.686;2022-10-31T05:20:51;9.60;;;3.07;;
23187;SDS011;11762;59.878;17.686;2022-10-31T05:23:40;9.80;;;3.67;;
23187;SDS011;11762;59.878;17.686;2022-10-31T05:26:27;11.20;;;3.60;;
23187;SDS011;11762;59.878;17.686;2022-10-31T05:29:14;7.87;;;3.27;;
23187;SDS011;11762;59.878;17.686;2022-10-31T05:32:02;13.50;;;6.10;;
23187;SDS011;11762;59.878;17.686;2022-10-31T05:34:49;11.10;;;3.77;;
23187;SDS011;11762;59.878;17.686;2022-10-31T05:37:37;10.90;;;3.67;;
23187;SDS011;11762;59.878;17.686;2022-10-31T05:40:26;6.87;;;4.77;;
23187;SDS011;11762;59.878;17.686;2022-10-31T05:43:14;9.43;;;3.90;;
23187;SDS011;11762;59.878;17.686;2022-10-31T05:46:01;12.70;;;4.37;;
23187;SDS011;11762;59.878;17.686;2022-10-31T05:48:49;9.33;;;3.50;;
23187;SDS011;11762;59.878;17.686;2022-10-31T05:51:36;7.43;;;3.70;;
23187;SDS011;11762;59.878;17.686;2022-10-31T05:54:23;8.07;;;3.90;;
23187;SDS011;11762;59.878;17.686;2022-10-31T05:57:12;9.10;;;3.73;;
23187;SDS011;11762;59.878;17.686;2022-10-31T05:59:59;11.53;;;3.60;;
23187;SDS011;11762;59.878;17.686;2022-10-31T06:02:47;10.17;;;3.63;;
23187;SDS011;11762;59.878;17.686;2022-10-31T06:05:34;11.60;;;3.53;;
23187;SDS011;11762;59.878;17.686;2022-10-31T06:08:22;11.20;;;3.53;;
23187;SDS011;11762;59.878;17.686;2022-10-31T06:11:09;13.37;;;4.23;;
23187;SDS011;11762;59.878;17.686;2022-10-31T06:13:58;10.93;;;4.20;;
23187;SDS011;11762;59.878;17.686;2022-10-31T06:16:45;12.20;;;4.73;;
23187;SDS011;11762;59.878;17.686;2022-10-31T06:19:32;12.57;;;5.37;;
23187;SDS011;11762;59.878;17.686;2022-10-31T06:22:20;18.30;;;5.77;;
23187;SDS011;11762;59.878;17.686;2022-10-31T06:25:07;8.70;;;4.20;;
23187;SDS011;11762;59.878;17.686;2022-10-31T06:27:55;12.00;;;3.97;;
23187;SDS011;11762;59.878;17.686;2022-10-31T06:30:44;10.93;;;3.93;;
23187;SDS011;11762;59.878;17.686;2022-10-31T06:33:32;12.17;;;4.47;;
23187;SDS011;11762;59.878;17.686;2022-10-31T06:36:20;13.87;;;4.50;;
23187;SDS011;11762;59.878;17.686;2022-10-31T06:39:07;12.63;;;4.60;;
23187;SDS011;11762;59.878;17.686;2022-10-31T06:41:54;12.10;;;4.47;;
23187;SDS011;11762;59.878;17.686;2022-10-31T06:44:42;12.60;;;6.53;;
23187;SDS011;11762;59.878;17.686;2022-10-31T06:47:30;23.47;;;11.30;;
23187;SDS011;11762;59.878;17.686;2022-10-31T06:50:17;13.87;;;5.77;;
23187;SDS011;11762;59.878;17.686;2022-10-31T06:53:05;7.93;;;4.10;;
23187;SDS011;11762;59.878;17.686;2022-10-31T06:55:52;6.53;;;3.20;;
23187;SDS011;11762;59.878;17.686;2022-10-31T06:58:41;10.77;;;3.67;;
23187;SDS011;11762;59.878;17.686;2022-10-31T07:01:28;9.87;;;4.23;;
23187;SDS011;11762;59.878;17.686;2022-10-31T07:04:17;11.97;;;4.40;;
23187;SDS011;11762;59.878;17.686;2022-10-31T07:07:04;12.40;;;4.20;;
23187;SDS011;11762;59.878;17.686;2022-10-31T07:09:52;12.53;;;5.47;;
23187;SDS011;11762;59.878;17.686;2022-10-31T07:12:39;13.23;;;4.57;;
23187;SDS011;11762;59.878;17.686;2022-10-31T07:15:27;19.67;;;4.77;;
23187;SDS011;11762;59.878;17.686;2022-10-31T07:18:16;11.53;;;4.63;;
23187;SDS011;11762;59.878;17.686;2022-10-31T07:21:04;15.97;;;4.63;;
23187;SDS011;11762;59.878;17.686;2022-10-31T07:23:52;8.73;;;4.20;;
23187;SDS011;11762;59.878;17.686;2022-10-31T07:26:39;8.17;;;4.57;;
23187;SDS011;11762;59.878;17.686;2022-10-31T07:29:27;10.70;;;5.23;;
23187;SDS011;11762;59.878;17.686;2022-10-31T07:32:15;9.70;;;5.00;;
23187;SDS011;11762;59.878;17.686;2022-10-31T07:35:02;11.77;;;4.80;;
23187;SDS011;11762;59.878;17.686;2022-10-31T07:37:51;11.27;;;5.47;;
23187;SDS011;11762;59.878;17.686;2022-10-31T07:40:38;12.10;;;5.07;;
23187;SDS011;11762;59.878;17.686;2022-10-31T07:43:26;20.03;;;6.60;;
23187;SDS011;11762;59.878;17.686;2022-10-31T07:46:13;18.80;;;6.87;;
23187;SDS011;11762;59.878;17.686;2022-10-31T07:49:01;22.93;;;6.23;;
23187;SDS011;11762;59.878;17.686;2022-10-31T07:51:48;16.07;;;6.40;;
23187;SDS011;11762;59.878;17.686;2022-10-31T07:54:37;18.23;;;5.33;;
23187;SDS011;11762;59.878;17.686;2022-10-31T07:57:24;14.37;;;6.13;;
23187;SDS011;11762;59.878;17.686;2022-10-31T08:00:12;14.23;;;6.30;;
23187;SDS011;11762;59.878;17.686;2022-10-31T08:02:59;21.90;;;7.03;;
23187;SDS011;11762;59.878;17.686;2022-10-31T08:05:47;19.83;;;6.47;;
23187;SDS011;11762;59.878;17.686;2022-10-31T08:08:35;26.70;;;7.40;;
23187;SDS011;11762;59.878;17.686;2022-10-31T08:11:24;23.27;;;6.90;;
23187;SDS011;11762;59.878;17.686;2022-10-31T08:14:11;24.17;;;7.47;;
23187;SDS011;11762;59.878;17.686;2022-10-31T08:16:59;23.30;;;6.43;;
23187;SDS011;11762;59.878;17.686;2022-10-31T08:19:46;26.87;;;7.63;;
23187;SDS011;11762;59.878;17.686;2022-10-31T08:22:33;26.50;;;7.53;;
23187;SDS011;11762;59.878;17.686;2022-10-31T08:25:21;29.00;;;8.93;;
23187;SDS011;11762;59.878;17.686;2022-10-31T08:28:10;30.43;;;7.53;;
23187;SDS011;11762;59.878;17.686;2022-10-31T08:30:57;30.90;;;8.37;;
23187;SDS011;11762;59.878;17.686;2022-10-31T08:33:45;25.20;;;7.50;;
23187;SDS011;11762;59.878;17.686;2022-10-31T08:36:32;32.40;;;8.67;;
23187;SDS011;11762;59.878;17.686;2022-10-31T08:39:20;28.60;;;7.47;;
23187;SDS011;11762;59.878;17.686;2022-10-31T08:42:07;28.93;;;7.33;;
23187;SDS011;11762;59.878;17.686;2022-10-31T08:44:56;27.57;;;7.40;;
23187;SDS011;11762;59.878;17.686;2022-10-31T08:47:43;21.37;;;7.93;;
23187;SDS011;11762;59.878;17.686;2022-10-31T08:50:31;28.07;;;7.87;;
23187;SDS011;11762;59.878;17.686;2022-10-31T08:53:19;27.03;;;7.60;;
23187;SDS011;11762;59.878;17.686;2022-10-31T08:56:08;32.00;;;8.97;;
23187;SDS011;11762;59.878;17.686;2022-10-31T08:58:55;23.93;;;7.67;;
23187;SDS011;11762;59.878;17.686;2022-10-31T09:01:44;27.93;;;8.37;;
23187;SDS011;11762;59.878;17.686;2022-10-31T09:04:31;31.83;;;9.60;;
23187;SDS011;11762;59.878;17.686;2022-10-31T09:07:19;19.53;;;7.63;;
23187;SDS011;11762;59.878;17.686;2022-10-31T09:10:06;35.37;;;7.33;;
23187;SDS011;11762;59.878;17.686;2022-10-31T09:12:54;30.03;;;8.63;;
23187;SDS011;11762;59.878;17.686;2022-10-31T09:15:43;31.53;;;9.07;;
23187;SDS011;11762;59.878;17.686;2022-10-31T09:18:33;24.87;;;8.37;;
23187;SDS011;11762;59.878;17.686;2022-10-31T09:21:20;26.73;;;8.63;;
23187;SDS011;11762;59.878;17.686;2022-10-31T09:24:07;24.13;;;7.60;;
23187;SDS011;11762;59.878;17.686;2022-10-31T09:26:55;26.37;;;8.67;;
23187;SDS011;11762;59.878;17.686;2022-10-31T09:29:42;23.70;;;7.87;;
23187;SDS011;11762;59.878;17.686;2022-10-31T09:32:29;22.37;;;8.23;;
23187;SDS011;11762;59.878;17.686;2022-10-31T09:35:18;23.43;;;8.20;;
23187;SDS011;11762;59.878;17.686;2022-10-31T09:38:07;21.73;;;7.60;;
23187;SDS011;11762;59.878;17.686;2022-10-31T09:41:04;22.57;;;7.97;;
23187;SDS011;11762;59.878;17.686;2022-10-31T09:44:04;17.00;;;7.53;;
23187;SDS011;11762;59.878;17.686;2022-10-31T09:47:02;20.90;;;7.93;;
23187;SDS011;11762;59.878;17.686;2022-10-31T09:50:01;22.00;;;7.50;;
23187;SDS011;11762;59.878;17.686;2022-10-31T09:53:01;20.50;;;7.27;;
23187;SDS011;11762;59.878;17.686;2022-10-31T09:55:51;18.20;;;8.13;;
23187;SDS011;11762;59.878;17.686;2022-10-31T09:58:42;19.77;;;8.43;;
23187;SDS011;11762;59.878;17.686;2022-10-31T10:01:42;21.97;;;8.10;;
23187;SDS011;11762;59.878;17.686;2022-10-31T10:04:37;13.17;;;7.00;;
23187;SDS011;11762;59.878;17.686;2022-10-31T10:07:32;16.80;;;7.70;;
23187;SDS011;11762;59.878;17.686;2022-10-31T10:10:32;18.70;;;7.83;;
23187;SDS011;11762;59.878;17.686;2022-10-31T10:13:36;20.80;;;7.93;;
23187;SDS011;11762;59.878;17.686;2022-10-31T10:16:41;17.03;;;7.13;;
23187;SDS011;11762;59.878;17.686;2022-10-31T10:19:44;17.07;;;6.33;;
23187;SDS011;11762;59.878;17.686;2022-10-31T10:22:52;17.17;;;8.27;;
23187;SDS011;11762;59.878;17.686;2022-10-31T10:25:51;20.83;;;7.43;;
23187;SDS011;11762;59.878;17.686;2022-10-31T10:28:46;18.60;;;6.90;;
23187;SDS011;11762;59.878;17.686;2022-10-31T10:31:40;13.70;;;6.47;;
23187;SDS011;11762;59.878;17.686;2022-10-31T10:34:33;17.97;;;7.33;;
23187;SDS011;11762;59.878;17.686;2022-10-31T10:37:25;13.17;;;6.87;;
23187;SDS011;11762;59.878;17.686;2022-10-31T10:40:18;17.40;;;7.43;;
23187;SDS011;11762;59.878;17.686;2022-10-31T10:43:17;17.07;;;7.50;;
23187;SDS011;11762;59.878;17.686;2022-10-31T10:46:17;17.07;;;7.20;;
23187;SDS011;11762;59.878;17.686;2022-10-31T10:49:24;17.67;;;7.90;;
23187;SDS011;11762;59.878;17.686;2022-10-31T10:52:21;19.50;;;8.07;;
23187;SDS011;11762;59.878;17.686;2022-10-31T10:55:21;14.13;;;6.87;;
23187;SDS011;11762;59.878;17.686;2022-10-31T10:58:18;18.77;;;7.33;;
23187;SDS011;11762;59.878;17.686;2022-10-31T11:01:08;14.77;;;6.90;;
23187;SDS011;11762;59.878;17.686;2022-10-31T11:03:58;13.33;;;6.37;;
23187;SDS011;11762;59.878;17.686;2022-10-31T11:06:56;18.30;;;7.77;;
23187;SDS011;11762;59.878;17.686;2022-10-31T11:09:44;14.43;;;7.20;;
23187;SDS011;11762;59.878;17.686;2022-10-31T11:12:33;12.00;;;7.00;;
23187;SDS011;11762;59.878;17.686;2022-10-31T11:15:22;12.07;;;6.77;;
23187;SDS011;11762;59.878;17.686;2022-10-31T11:18:12;16.07;;;6.63;;
23187;SDS011;11762;59.878;17.686;2022-10-31T11:21:17;17.47;;;6.97;;
23187;SDS011;11762;59.878;17.686;2022-10-31T11:24:12;14.73;;;6.53;;
23187;SDS011;11762;59.878;17.686;2022-10-31T11:27:03;12.77;;;7.00;;
23187;SDS011;11762;59.878;17.686;2022-10-31T11:30:06;15.10;;;6.57;;
23187;SDS011;11762;59.878;17.686;2022-10-31T11:32:57;13.47;;;6.07;;
23187;SDS011;11762;59.878;17.686;2022-10-31T11:35:45;13.60;;;6.40;;
23187;SDS011;11762;59.878;17.686;2022-10-31T11:38:33;17.23;;;6.70;;
23187;SDS011;11762;59.878;17.686;2022-10-31T11:41:27;15.67;;;5.50;;
23187;SDS011;11762;59.878;17.686;2022-10-31T11:44:17;12.90;;;6.20;;
23187;SDS011;11762;59.878;17.686;2022-10-31T11:47:10;10.77;;;4.90;;
23187;SDS011;11762;59.878;17.686;2022-10-31T11:50:08;15.37;;;5.17;;
23187;SDS011;11762;59.878;17.686;2022-10-31T11:52:58;10.73;;;5.83;;
23187;SDS011;11762;59.878;17.686;2022-10-31T11:55:45;14.03;;;5.70;;
23187;SDS011;11762;59.878;17.686;2022-10-31T11:58:34;9.70;;;4.33;;
23187;SDS011;11762;59.878;17.686;2022-10-31T12:01:23;12.67;;;5.10;;
23187;SDS011;11762;59.878;17.686;2022-10-31T12:04:12;10.20;;;5.00;;
23187;SDS011;11762;59.878;17.686;2022-10-31T12:07:02;15.00;;;6.07;;
23187;SDS011;11762;59.878;17.686;2022-10-31T12:09:50;10.27;;;5.33;;
23187;SDS011;11762;59.878;17.686;2022-10-31T12:12:50;11.60;;;4.80;;
23187;SDS011;11762;59.878;17.686;2022-10-31T12:15:44;9.90;;;4.80;;
23187;SDS011;11762;59.878;17.686;2022-10-31T12:18:40;8.00;;;4.40;;
23187;SDS011;11762;59.878;17.686;2022-10-31T12:21:52;12.30;;;5.37;;
23187;SDS011;11762;59.878;17.686;2022-10-31T12:25:00;18.77;;;5.00;;
23187;SDS011;11762;59.878;17.686;2022-10-31T12:28:11;8.20;;;4.37;;
23187;SDS011;11762;59.878;17.686;2022-10-31T12:31:25;8.13;;;4.47;;
23187;SDS011;11762;59.878;17.686;2022-10-31T12:34:29;11.90;;;4.77;;
23187;SDS011;11762;59.878;17.686;2022-10-31T12:37:31;11.33;;;4.50;;
23187;SDS011;11762;59.878;17.686;2022-10-31T12:43:45;7.90;;;4.40;;
23187;SDS011;11762;59.878;17.686;2022-10-31T12:46:43;14.30;;;4.67;;
23187;SDS011;11762;59.878;17.686;2022-10-31T12:49:47;9.50;;;5.07;;
23187;SDS011;11762;59.878;17.686;2022-10-31T12:52:44;10.30;;;4.63;;
23187;SDS011;11762;59.878;17.686;2022-10-31T12:55:41;9.63;;;4.53;;
23187;SDS011;11762;59.878;17.686;2022-10-31T12:58:40;11.80;;;4.17;;
23187;SDS011;11762;59.878;17.686;2022-10-31T13:01:33;11.37;;;4.53;;
23187;SDS011;11762;59.878;17.686;2022-10-31T13:04:28;13.47;;;4.80;;
23187;SDS011;11762;59.878;17.686;2022-10-31T13:07:23;10.37;;;5.00;;
23187;SDS011;11762;59.878;17.686;2022-10-31T13:10:15;7.47;;;4.83;;
23187;SDS011;11762;59.878;17.686;2022-10-31T13:13:06;9.37;;;4.93;;
23187;SDS011;11762;59.878;17.686;2022-10-31T13:16:00;10.17;;;4.87;;
23187;SDS011;11762;59.878;17.686;2022-10-31T13:18:52;12.90;;;5.10;;
23187;SDS011;11762;59.878;17.686;2022-10-31T13:21:44;12.57;;;4.60;;
23187;SDS011;11762;59.878;17.686;2022-10-31T13:24:41;13.70;;;4.40;;
23187;SDS011;11762;59.878;17.686;2022-10-31T13:27:33;9.67;;;5.00;;
23187;SDS011;11762;59.878;17.686;2022-10-31T13:30:36;11.73;;;4.57;;
23187;SDS011;11762;59.878;17.686;2022-10-31T13:33:29;9.87;;;4.40;;
23187;SDS011;11762;59.878;17.686;2022-10-31T13:36:21;11.37;;;4.07;;
23187;SDS011;11762;59.878;17.686;2022-10-31T13:39:18;12.77;;;5.10;;
23187;SDS011;11762;59.878;17.686;2022-10-31T13:42:12;12.03;;;4.17;;
23187;SDS011;11762;59.878;17.686;2022-10-31T13:45:11;14.00;;;4.27;;
23187;SDS011;11762;59.878;17.686;2022-10-31T13:48:00;10.30;;;3.47;;
23187;SDS011;11762;59.878;17.686;2022-10-31T13:51:05;8.87;;;3.57;;
23187;SDS011;11762;59.878;17.686;2022-10-31T13:53:58;15.10;;;4.40;;
23187;SDS011;11762;59.878;17.686;2022-10-31T13:56:48;7.73;;;3.30;;
23187;SDS011;11762;59.878;17.686;2022-10-31T13:59:36;8.20;;;4.43;;
23187;SDS011;11762;59.878;17.686;2022-10-31T14:02:25;11.77;;;4.90;;
23187;SDS011;11762;59.878;17.686;2022-10-31T14:05:19;9.50;;;4.20;;
23187;SDS011;11762;59.878;17.686;2022-10-31T18:05:03;13.43;;;5.50;;
23187;SDS011;11762;59.878;17.686;2022-10-31T18:07:52;14.10;;;5.73;;
23187;SDS011;11762;59.878;17.686;2022-10-31T18:10:40;15.97;;;6.10;;
23187;SDS011;11762;59.878;17.686;2022-10-31T18:13:27;14.73;;;5.47;;
23187;SDS011;11762;59.878;17.686;2022-10-31T18:16:15;19.77;;;6.40;;
23187;SDS011;11762;59.878;17.686;2022-10-31T18:19:03;16.53;;;4.90;;
23187;SDS011;11762;59.878;17.686;2022-10-31T18:21:52;18.03;;;5.27;;
23187;SDS011;11762;59.878;17.686;2022-10-31T18:24:39;17.83;;;5.40;;
23187;SDS011;11762;59.878;17.686;2022-10-31T18:27:27;16.33;;;5.60;;
23187;SDS011;11762;59.878;17.686;2022-10-31T18:30:14;15.13;;;5.80;;
23187;SDS011;11762;59.878;17.686;2022-10-31T18:33:02;11.27;;;5.40;;
23187;SDS011;11762;59.878;17.686;2022-10-31T18:35:49;11.07;;;5.23;;
23187;SDS011;11762;59.878;17.686;2022-10-31T18:38:38;12.87;;;4.90;;
23187;SDS011;11762;59.878;17.686;2022-10-31T18:41:29;11.23;;;4.83;;
23187;SDS011;11762;59.878;17.686;2022-10-31T18:44:16;11.13;;;4.80;;
23187;SDS011;11762;59.878;17.686;2022-10-31T18:47:04;10.30;;;4.27;;
23187;SDS011;11762;59.878;17.686;2022-10-31T18:49:51;15.90;;;4.17;;
23187;SDS011;11762;59.878;17.686;2022-10-31T18:52:39;12.23;;;4.27;;
23187;SDS011;11762;59.878;17.686;2022-10-31T18:55:28;11.57;;;4.50;;
23187;SDS011;11762;59.878;17.686;2022-10-31T18:58:15;10.37;;;4.40;;
23187;SDS011;11762;59.878;17.686;2022-10-31T19:01:04;16.27;;;4.93;;
23187;SDS011;11762;59.878;17.686;2022-10-31T19:03:53;10.50;;;4.40;;
23187;SDS011;11762;59.878;17.686;2022-10-31T19:06:41;11.77;;;4.93;;
23187;SDS011;11762;59.878;17.686;2022-10-31T19:09:28;15.00;;;4.40;;
23187;SDS011;11762;59.878;17.686;2022-10-31T19:12:17;10.57;;;4.50;;
23187;SDS011;11762;59.878;17.686;2022-10-31T19:15:05;15.27;;;4.20;;
23187;SDS011;11762;59.878;17.686;2022-10-31T19:17:53;12.60;;;4.97;;
23187;SDS011;11762;59.878;17.686;2022-10-31T19:20:40;13.23;;;4.57;;
23187;SDS011;11762;59.878;17.686;2022-10-31T19:23:28;13.37;;;4.43;;
23187;SDS011;11762;59.878;17.686;2022-10-31T19:26:15;10.93;;;4.47;;
23187;SDS011;11762;59.878;17.686;2022-10-31T19:29:03;13.93;;;4.30;;
23187;SDS011;11762;59.878;17.686;2022-10-31T19:31:51;13.63;;;4.17;;
23187;SDS011;11762;59.878;17.686;2022-10-31T19:34:38;9.60;;;3.77;;
23187;SDS011;11762;59.878;17.686;2022-10-31T19:37:25;11.07;;;4.47;;
23187;SDS011;11762;59.878;17.686;2022-10-31T19:40:13;10.97;;;4.27;;
23187;SDS011;11762;59.878;17.686;2022-10-31T19:43:00;9.87;;;4.30;;
23187;SDS011;11762;59.878;17.686;2022-10-31T19:45:53;14.93;;;5.00;;
23187;SDS011;11762;59.878;17.686;2022-10-31T19:48:41;17.97;;;4.90;;
23187;SDS011;11762;59.878;17.686;2022-10-31T19:51:28;14.20;;;4.33;;
23187;SDS011;11762;59.878;17.686;2022-10-31T19:54:16;18.73;;;4.70;;
23187;SDS011;11762;59.878;17.686;2022-10-31T19:57:03;12.27;;;4.50;;
23187;SDS011;11762;59.878;17.686;2022-10-31T19:59:50;11.53;;;4.13;;
23187;SDS011;11762;59.878;17.686;2022-10-31T20:02:39;16.30;;;4.60;;
23187;SDS011;11762;59.878;17.686;2022-10-31T20:05:26;15.90;;;4.53;;
23187;SDS011;11762;59.878;17.686;2022-10-31T20:08:14;19.37;;;5.03;;
23187;SDS011;11762;59.878;17.686;2022-10-31T20:11:03;11.20;;;5.50;;
23187;SDS011;11762;59.878;17.686;2022-10-31T20:13:51;15.63;;;5.37;;
23187;SDS011;11762;59.878;17.686;2022-10-31T20:16:40;10.27;;;4.10;;
23187;SDS011;11762;59.878;17.686;2022-10-31T20:19:29;14.97;;;4.73;;
23187;SDS011;11762;59.878;17.686;2022-10-31T20:22:16;13.53;;;4.37;;
23187;SDS011;11762;59.878;17.686;2022-10-31T20:25:04;10.73;;;4.37;;
23187;SDS011;11762;59.878;17.686;2022-10-31T20:27:52;13.23;;;4.50;;
23187;SDS011;11762;59.878;17.686;2022-10-31T20:30:39;12.93;;;4.20;;
23187;SDS011;11762;59.878;17.686;2022-10-31T20:33:26;14.23;;;4.73;;
23187;SDS011;11762;59.878;17.686;2022-10-31T20:36:15;10.90;;;4.47;;
23187;SDS011;11762;59.878;17.686;2022-10-31T20:39:05;16.07;;;4.00;;
23187;SDS011;11762;59.878;17.686;2022-10-31T20:41:52;18.50;;;4.73;;
23187;SDS011;11762;59.878;17.686;2022-10-31T20:44:40;11.87;;;4.33;;